Time;durP1;ratioP1;P1;durP2;ratioP2;P2;SDS_P1;SDS_P2;PMS_P1;PMS_P2;Temp;Humidity;BMP_temperature;BMP_pressure;BME280_temperature;BME280_humidity;BME280_pressure;Samples;Min_cycle;Max_cycle;Signal;HPM_P1;HPM_P2
2023/01/13 00:09:37;;;;;;;233.73;37.38;;;;;;;18.90;44.08;100806.91;20993704;28;20048;-61
2023/01/13 00:19:45;;;;;;;228.43;36.42;;;;;;;18.90;44.08;100784.72;20992751;28;20044;-61
2023/01/13 00:29:52;;;;;;;185.60;33.22;;;;;;;18.90;44.06;100782.78;20992298;28;20040;-61
2023/01/13 00:39:59;;;;;;;165.40;30.05;;;;;;;18.89;44.32;100777.53;20992243;28;20032;-61
2023/01/13 00:50:03;;;;;;;152.05;29.35;;;;;;;18.86;43.91;100751.16;20991332;28;20045;-61
2023/01/13 01:00:05;;;;;;;131.13;28.17;;;;;;;18.85;43.97;100738.41;20991390;28;20048;-61
2023/01/13 01:10:13;;;;;;;121.97;26.52;;;;;;;18.64;43.99;100700.59;20990997;28;20045;-63
2023/01/13 01:20:17;;;;;;;120.32;25.42;;;;;;;18.82;43.78;100702.06;20990161;28;20114;-63
2023/01/13 01:30:18;;;;;;;93.90;24.15;;;;;;;18.81;44.04;100661.59;20998226;28;20392;-62
2023/01/13 01:40:20;;;;;;;89.75;22.23;;;;;;;18.82;43.68;100632.78;21004442;28;20561;-62
2023/01/13 01:50:25;;;;;;;92.15;22.30;;;;;;;18.78;43.70;100619.47;21003742;28;20040;-62
2023/01/13 02:00:27;;;;;;;97.97;20.98;;;;;;;18.77;44.00;100598.38;21002882;28;20060;-62
2023/01/13 02:10:32;;;;;;;64.78;18.48;;;;;;;18.67;43.90;100554.00;21002307;28;20044;-62
2023/01/13 02:20:54;;;;;;;73.97;19.38;;;;;;;18.77;43.78;100554.03;21000896;28;20048;-62
2023/01/13 02:52:04;;;;;;;54.30;14.85;;;;;;;18.71;43.46;100444.28;21015683;28;20040;-62
2023/01/13 03:02:11;;;;;;;54.15;16.13;;;;;;;18.77;43.77;100436.78;21080365;28;20459;-62
2023/01/13 03:12:43;;;;;;;53.45;15.43;;;;;;;18.70;43.64;100420.44;21004508;28;20033;-62
2023/01/13 03:23:16;;;;;;;47.33;15.02;;;;;;;18.70;43.48;100408.53;20993772;28;20051;-62
2023/01/13 03:33:27;;;;;;;37.33;13.35;;;;;;;18.71;43.80;100388.84;20994536;28;20105;-61
2023/01/13 03:53:59;;;;;;;39.13;12.93;;;;;;;18.65;43.72;100333.69;20994432;28;20044;-61
2023/01/13 04:04:08;;;;;;;40.35;13.10;;;;;;;18.67;44.08;100337.81;20995821;28;20500;-61
2023/01/13 04:14:11;;;;;;;44.70;12.63;;;;;;;18.69;43.76;100321.78;20991883;28;20039;-61
2023/01/13 04:24:13;;;;;;;37.33;11.50;;;;;;;18.69;43.84;100284.91;20991919;28;20045;-61
2023/01/13 04:34:14;;;;;;;33.60;12.38;;;;;;;18.62;44.02;100268.56;20991784;28;20086;-61
2023/01/13 04:44:15;;;;;;;33.45;11.02;;;;;;;18.48;43.96;100224.00;20991283;28;20028;-61
2023/01/13 04:54:17;;;;;;;31.27;11.35;;;;;;;18.67;43.75;100209.50;20991578;28;20041;-62
2023/01/13 05:04:21;;;;;;;28.25;9.85;;;;;;;18.39;44.12;100178.59;20997477;28;20459;-62
2023/01/13 05:35:07;;;;;;;26.15;9.52;;;;;;;18.70;43.99;100176.56;21006594;28;19934;-62
2023/01/13 05:45:10;;;;;;;25.10;8.65;;;;;;;18.66;44.21;100164.34;21003600;28;20040;-64
2023/01/13 05:55:11;;;;;;;25.08;9.18;;;;;;;18.65;44.29;100140.53;21003019;28;20049;-61
2023/01/13 06:05:16;;;;;;;25.10;8.88;;;;;;;18.65;44.26;100157.16;21000874;28;20540;-61
2023/01/13 06:15:18;;;;;;;24.00;8.48;;;;;;;18.65;44.17;100140.53;21001116;28;20067;-61
2023/01/13 06:25:35;;;;;;;19.13;8.43;;;;;;;18.64;44.23;100130.53;21000970;28;20049;-63
2023/01/13 06:35:40;;;;;;;19.60;7.78;;;;;;;18.65;44.24;100135.00;20999023;28;20032;-62
2023/01/13 06:45:51;;;;;;;18.27;7.75;;;;;;;18.64;44.31;100149.94;20998720;28;20043;-62
2023/01/13 06:55:52;;;;;;;16.67;7.50;;;;;;;18.64;44.28;100125.00;20997343;28;20040;-64
2023/01/13 07:05:54;;;;;;;16.52;7.88;;;;;;;18.61;44.25;100114.50;20997474;28;20045;-62
2023/01/13 07:16:02;;;;;;;16.52;7.22;;;;;;;18.64;44.15;100105.59;20996687;28;20070;-62
2023/01/13 07:26:03;;;;;;;16.48;7.32;;;;;;;18.65;44.09;100076.78;20994851;28;20161;-62
2023/01/13 07:36:06;;;;;;;19.17;7.03;;;;;;;18.65;44.13;100065.72;20994865;28;20102;-60
2023/01/13 07:46:07;;;;;;;17.17;6.88;;;;;;;18.65;44.14;100040.78;20994647;28;20036;-62
2023/01/13 07:56:09;;;;;;;14.85;6.78;;;;;;;18.64;44.07;100055.72;20993860;28;20487;-62
2023/01/13 08:06:16;;;;;;;14.43;6.72;;;;;;;18.49;44.08;100015.09;20993615;28;20048;-62
2023/01/13 08:16:17;;;;;;;12.68;6.38;;;;;;;18.63;44.36;100009.72;20992867;28;20099;-61
2023/01/13 08:26:19;;;;;;;12.52;6.10;;;;;;;18.61;44.36;100023.06;20992814;28;20094;-62
2023/01/13 08:36:20;;;;;;;12.73;6.03;;;;;;;18.64;44.01;100005.84;20996090;28;20192;-62
2023/01/13 08:46:21;;;;;;;12.32;5.60;;;;;;;18.63;44.37;99976.47;21008582;28;20094;-62
2023/01/13 08:56:25;;;;;;;10.63;5.55;;;;;;;18.60;44.41;99968.75;21007293;28;20110;-62
2023/01/13 09:06:27;;;;;;;10.90;5.68;;;;;;;18.61;44.35;99955.72;21006297;28;20032;-61
2023/01/13 09:16:28;;;;;;;9.50;4.80;;;;;;;18.47;44.32;99952.78;21005510;28;20479;-62
2023/01/13 09:26:33;;;;;;;10.45;6.00;;;;;;;18.62;43.95;99974.84;21005194;28;20090;-62
2023/01/13 09:36:34;;;;;;;11.50;5.20;;;;;;;18.31;43.96;99954.00;21004292;28;20025;-61
2023/01/13 09:46:43;;;;;;;10.35;4.90;;;;;;;18.64;44.33;99999.47;21003140;28;20032;-62
2023/01/13 09:56:44;;;;;;;9.97;4.63;;;;;;;18.65;44.29;99990.88;21002681;28;20094;-61
2023/01/13 10:06:57;;;;;;;7.65;4.30;;;;;;;18.65;44.11;99984.53;21001907;28;20032;-62
2023/01/13 10:17:31;;;;;;;7.68;4.35;;;;;;;18.65;44.40;100006.69;21001197;28;20502;-62
2023/01/13 10:27:36;;;;;;;8.00;4.30;;;;;;;18.65;44.07;99979.81;21001305;28;20048;-61
2023/01/13 10:37:37;;;;;;;8.55;4.45;;;;;;;18.62;44.41;99955.44;21000298;28;20052;-62
2023/01/13 10:47:39;;;;;;;6.90;4.50;;;;;;;18.61;44.42;99989.81;20999328;28;20036;-62
2023/01/13 10:57:43;;;;;;;9.73;4.40;;;;;;;18.61;44.04;99988.97;20996807;28;20106;-62
2023/01/13 11:07:51;;;;;;;6.32;4.05;;;;;;;18.40;44.30;99946.72;20996972;28;20033;-62
2023/01/13 11:18:00;;;;;;;7.28;4.07;;;;;;;18.58;44.08;99968.22;20995927;28;20060;-61
2023/01/13 11:28:14;;;;;;;7.80;4.00;;;;;;;18.57;44.41;99933.31;20995669;28;20055;-61
2023/01/13 11:38:27;;;;;;;5.10;3.10;;;;;;;18.55;43.94;99966.00;20994677;28;20384;-61
2023/01/13 11:48:34;;;;;;;8.23;3.83;;;;;;;18.47;44.20;99938.94;20993775;28;20388;-61
2023/01/13 11:59:11;;;;;;;6.63;3.72;;;;;;;18.35;44.33;99930.16;20993686;28;20102;-61
2023/01/13 12:09:32;;;;;;;5.88;3.33;;;;;;;18.60;44.20;99959.59;20991789;28;20041;-60
2023/01/13 12:19:34;;;;;;;5.78;3.95;;;;;;;18.58;44.24;99957.13;20990443;28;20053;-61
2023/01/13 12:29:37;;;;;;;5.45;3.03;;;;;;;18.66;44.19;99967.59;20992234;28;20487;-61
2023/01/13 12:39:54;;;;;;;6.50;3.17;;;;;;;18.67;44.16;99982.28;20991722;28;20041;-60
2023/01/13 12:50:21;;;;;;;4.95;2.50;;;;;;;15.31;43.92;99438.38;20992130;28;20044;-61
2023/01/13 13:00:39;;;;;;;3.80;2.70;;;;;;;18.63;44.20;99993.09;20990879;28;20036;-61
2023/01/13 13:22:17;;;;;;;5.65;3.17;;;;;;;18.54;44.31;99983.75;20991424;28;20040;-62
2023/01/13 13:32:37;;;;;;;5.45;3.22;;;;;;;18.57;44.29;99979.59;20998063;28;20082;-61
2023/01/13 13:53:26;;;;;;;4.13;2.70;;;;;;;18.61;44.30;99994.53;21003888;28;20089;-61
2023/01/13 14:03:33;;;;;;;4.40;2.50;;;;;;;18.61;44.66;99987.03;21002504;28;20435;-61
2023/01/13 14:13:35;;;;;;;4.38;2.60;;;;;;;18.50;44.34;100002.06;21000932;28;20040;-61
2023/01/13 14:23:39;;;;;;;3.90;2.30;;;;;;;18.53;44.26;100018.13;21000758;28;20047;-62
2023/01/13 14:33:49;;;;;;;3.85;2.50;;;;;;;18.58;44.27;100045.78;21000031;28;20024;-61
2023/01/13 14:43:56;;;;;;;3.40;2.60;;;;;;;18.58;44.27;100072.66;20998682;28;20032;-61
2023/01/13 14:53:58;;;;;;;4.15;2.30;;;;;;;18.44;44.43;100083.56;20998385;28;20106;-61
2023/01/13 15:04:25;;;;;;;3.78;2.33;;;;;;;18.36;44.27;100096.03;20997210;28;20472;-61
2023/01/13 15:14:35;;;;;;;3.10;2.33;;;;;;;18.57;44.34;100163.28;20996276;28;20033;-61
2023/01/13 15:24:36;;;;;;;;;;;;;;;18.58;44.12;100151.09;20996352;28;20454;-61
2023/01/13 15:34:37;;;;;;;4.38;2.65;;;;;;;18.63;44.36;100180.72;20995721;28;20264;-61
2023/01/13 15:54:58;;;;;;;3.42;2.70;;;;;;;18.58;44.39;100212.03;20994952;28;20052;-61
2023/01/13 16:05:03;;;;;;;2.90;2.22;;;;;;;18.58;44.38;100212.03;20993476;28;20040;-61
2023/01/13 16:15:07;;;;;;;3.60;2.55;;;;;;;18.58;44.24;100213.97;20993010;28;20024;-61
2023/01/13 16:25:19;;;;;;;4.25;2.63;;;;;;;18.50;44.40;100188.50;20992945;28;20457;-61
2023/01/13 16:35:21;;;;;;;8.40;3.30;;;;;;;18.63;44.35;100191.78;21034628;28;20040;-61
2023/01/13 16:45:23;;;;;;;48.08;4.82;;;;;;;18.67;44.45;100192.88;21075050;28;20044;-61
2023/01/13 16:55:26;;;;;;;24.10;4.25;;;;;;;18.70;45.70;100195.97;21075082;28;20040;-60
2023/01/13 17:05:28;;;;;;;19.70;3.55;;;;;;;18.70;45.49;100214.53;21089883;28;20482;-60
2023/01/13 17:15:29;;;;;;;20.52;3.50;;;;;;;18.69;45.43;100174.91;21090262;28;20093;-60
2023/01/13 17:25:33;;;;;;;12.98;3.30;;;;;;;18.72;45.53;100132.75;21089606;28;20052;-60
2023/01/13 17:35:38;;;;;;;12.07;2.72;;;;;;;18.72;45.10;100166.00;21089114;28;20383;-61
2023/01/13 17:45:40;;;;;;;12.68;2.95;;;;;;;18.68;45.21;100178.75;21088050;28;20040;-61
2023/01/13 17:55:51;;;;;;;9.93;3.03;;;;;;;18.65;44.72;100184.03;21051695;28;20048;-60
2023/01/13 18:05:53;;;;;;;13.85;3.03;;;;;;;18.70;45.04;100236.72;21001070;28;20028;-60
2023/01/13 18:16:05;;;;;;;21.70;3.60;;;;;;;18.59;45.31;100235.84;20999635;28;20046;-60
2023/01/13 18:36:37;;;;;;;41.57;5.00;;;;;;;18.71;45.06;100228.09;20999456;28;20041;-60
2023/01/13 18:46:38;;;;;;;41.70;5.38;;;;;;;18.70;45.08;100232.00;20997787;28;20037;-61
2023/01/13 18:56:40;;;;;;;50.60;5.95;;;;;;;18.70;45.09;100250.56;20996935;28;20048;-60
2023/01/13 19:06:49;;;;;;;48.65;6.35;;;;;;;18.68;45.28;100267.41;20995812;28;20045;-60
2023/01/13 19:16:51;;;;;;;53.28;4.85;;;;;;;18.72;45.27;100268.56;20994544;28;20053;-60
2023/01/13 19:26:56;;;;;;;35.08;4.85;;;;;;;18.52;45.37;100207.63;21042371;28;20048;-60
2023/01/13 19:37:02;;;;;;;51.15;5.30;;;;;;;18.70;45.16;100264.41;21011298;28;20078;-60
2023/01/13 19:47:05;;;;;;;71.25;6.88;;;;;;;18.62;45.33;100254.69;20992602;28;20036;-62
2023/01/13 19:57:06;;;;;;;107.40;9.57;;;;;;;18.62;45.21;100254.69;20994043;28;20075;-59
2023/01/13 20:07:08;;;;;;;133.82;12.45;;;;;;;18.82;45.39;100306.50;20993690;28;20040;-60
2023/01/13 20:17:12;;;;;;;144.18;13.75;;;;;;;18.61;45.08;100266.91;20992381;28;20483;-61
2023/01/13 20:27:13;;;;;;;194.85;20.55;;;;;;;18.67;45.30;100270.47;20991816;28;20032;-62
2023/01/13 20:37:14;;;;;;;239.20;24.60;;;;;;;18.83;45.35;100340.59;21003693;28;20048;-61
2023/01/13 20:47:16;;;;;;;210.27;23.33;;;;;;;18.86;45.55;100334.47;21006450;28;20032;-61
2023/01/13 20:57:17;;;;;;;165.88;20.35;;;;;;;18.84;45.50;100378.31;21006260;28;20067;-62
2023/01/13 21:07:19;;;;;;;137.55;17.58;;;;;;;18.82;45.52;100380.50;21006154;28;20098;-60
2023/01/13 21:28:04;;;;;;;126.80;15.47;;;;;;;18.83;45.67;100429.28;21050533;28;20492;-60
2023/01/13 21:38:06;;;;;;;114.75;15.23;;;;;;;18.81;46.17;100414.88;21004069;28;20483;-60
2023/01/13 21:48:07;;;;;;;101.82;12.70;;;;;;;18.82;46.01;100427.63;21001740;28;20037;-62
2023/01/13 21:58:11;;;;;;;84.00;11.88;;;;;;;18.67;46.17;100415.41;21001391;28;20066;-61
2023/01/13 22:08:13;;;;;;;70.65;10.23;;;;;;;18.61;46.45;100449.81;21001154;28;20044;-60
2023/01/13 22:18:16;;;;;;;94.35;12.70;;;;;;;18.69;46.87;100490.84;21000341;28;20066;-61
2023/01/13 22:28:24;;;;;;;79.30;10.90;;;;;;;18.84;46.77;100505.81;20999308;28;20098;-60
2023/01/13 22:38:32;;;;;;;73.03;10.05;;;;;;;18.83;47.23;100518.84;20999093;28;20086;-61
2023/01/13 22:48:34;;;;;;;65.70;9.27;;;;;;;18.84;47.24;100528.00;21026660;28;20028;-61
2023/01/13 22:58:38;;;;;;;58.42;8.02;;;;;;;18.86;46.86;100498.03;21082607;28;20402;-61
2023/01/13 23:08:39;;;;;;;67.88;8.73;;;;;;;18.53;47.23;100508.53;21082011;28;20036;-61
2023/01/13 23:18:49;;;;;;;59.05;8.75;;;;;;;18.80;47.35;100524.94;21025886;28;20079;-62
2023/01/13 23:28:53;;;;;;;46.28;7.35;;;;;;;18.83;47.25;100506.91;20996281;28;20037;-62
2023/01/13 23:38:57;;;;;;;50.75;7.30;;;;;;;18.82;47.32;100542.13;20995261;28;20036;-62
2023/01/13 23:48:59;;;;;;;44.88;6.18;;;;;;;18.78;46.98;100589.00;20994937;28;20553;-62
2023/01/13 23:59:01;;;;;;;42.88;6.40;;;;;;;18.82;46.94;100639.16;20994676;28;20101;-61
